Time;durP1;ratioP1;P1;durP2;ratioP2;P2;SDS_P1;SDS_P2;PMS_P1;PMS_P2;Temp;Humidity;BMP_temperature;BMP_pressure;BME280_temperature;BME280_humidity;BME280_pressure;Samples;Min_cycle;Max_cycle;Signal;HPM_P1;HPM_P2
2023/03/24 00:01:57;;;;;;;8.80;4.30;;;;;;;;;;5047589;28;20187;-69
2023/03/24 00:04:24;;;;;;;11.70;4.03;;;;;;;;;;5049120;28;20677;-69
2023/03/24 00:06:51;;;;;;;7.30;4.07;;;;;;;;;;5047642;28;20325;-69
2023/03/24 00:09:18;;;;;;;6.33;3.90;;;;;;;;;;5048722;28;20208;-69
2023/03/24 00:11:44;;;;;;;8.00;4.47;;;;;;;;;;5049379;28;20272;-69
2023/03/24 00:14:11;;;;;;;8.87;4.83;;;;;;;;;;5030787;28;20289;-69
2023/03/24 00:16:41;;;;;;;8.33;4.10;;;;;;;;;;5048872;28;20182;-69
2023/03/24 00:19:09;;;;;;;7.43;4.50;;;;;;;;;;5037472;28;20191;-69
2023/03/24 00:21:36;;;;;;;9.07;4.53;;;;;;;;;;5027059;28;20583;-69
2023/03/24 00:24:03;;;;;;;8.17;4.40;;;;;;;;;;5028762;28;20210;-69
2023/03/24 00:26:31;;;;;;;10.80;5.30;;;;;;;;;;5029064;28;20199;-69
2023/03/24 00:28:57;;;;;;;7.50;4.87;;;;;;;;;;5010582;28;20223;-69
2023/03/24 00:31:24;;;;;;;8.13;4.77;;;;;;;;;;5029004;28;20257;-69
2023/03/24 00:33:52;;;;;;;7.53;4.83;;;;;;;;;;5027771;28;20231;-69
2023/03/24 00:36:20;;;;;;;9.07;4.50;;;;;;;;;;5028709;28;20186;-69
2023/03/24 00:38:48;;;;;;;8.17;5.33;;;;;;;;;;5011341;28;20699;-69
2023/03/24 00:41:18;;;;;;;8.70;4.47;;;;;;;;;;5045412;28;20359;-69
2023/03/24 00:43:46;;;;;;;7.77;4.40;;;;;;;;;;5048156;28;20333;-69
2023/03/24 00:46:26;;;;;;;7.07;4.43;;;;;;;;;;5030114;28;20971;-69
2023/03/24 00:49:01;;;;;;;6.10;3.87;;;;;;;;;;5048027;28;20742;-69
2023/03/24 00:51:35;;;;;;;8.30;3.97;;;;;;;;;;5047677;28;20194;-69
2023/03/24 00:54:02;;;;;;;5.07;3.43;;;;;;;;;;5030656;28;20229;-69
2023/03/24 00:56:30;;;;;;;5.93;4.00;;;;;;;;;;5046986;28;20193;-69
2023/03/24 00:58:57;;;;;;;7.50;4.10;;;;;;;;;;5029894;28;20206;-69
2023/03/24 01:01:24;;;;;;;7.17;4.40;;;;;;;;;;5039845;28;20223;-69
2023/03/24 01:03:51;;;;;;;6.10;3.83;;;;;;;;;;5028207;28;20528;-69
2023/03/24 01:06:21;;;;;;;7.47;4.20;;;;;;;;;;5026756;28;20649;-69
2023/03/24 01:08:48;;;;;;;6.57;4.50;;;;;;;;;;5028084;28;20290;-69
2023/03/24 01:11:15;;;;;;;6.10;3.93;;;;;;;;;;5027742;28;20191;-69
2023/03/24 01:13:42;;;;;;;7.03;4.50;;;;;;;;;;5028420;28;20664;-69
2023/03/24 01:16:09;;;;;;;5.83;4.00;;;;;;;;;;5027973;28;20191;-69
2023/03/24 01:18:39;;;;;;;6.97;4.43;;;;;;;;;;5027734;28;20189;-69
2023/03/24 01:21:07;;;;;;;6.20;4.17;;;;;;;;;;5028036;28;20191;-69
2023/03/24 01:23:33;;;;;;;7.80;4.83;;;;;;;;;;5028203;28;20191;-69
2023/03/24 01:26:03;;;;;;;12.37;5.07;;;;;;;;;;5027885;28;20192;-69
2023/03/24 01:28:30;;;;;;;10.70;5.37;;;;;;;;;;5027683;28;20211;-69
2023/03/24 01:30:57;;;;;;;7.37;4.67;;;;;;;;;;5026165;28;20195;-69
2023/03/24 01:33:23;;;;;;;8.03;5.30;;;;;;;;;;5028014;28;20187;-69
2023/03/24 01:35:50;;;;;;;10.33;6.00;;;;;;;;;;5027956;28;20274;-69
2023/03/24 01:38:17;;;;;;;9.23;5.70;;;;;;;;;;5027610;28;20194;-70
2023/03/24 01:40:44;;;;;;;9.20;5.57;;;;;;;;;;5027947;28;20191;-69
2023/03/24 02:15:37;;;;;;;14.97;8.40;;;;;;;;;;5031101;28;20198;-69
2023/03/24 02:18:26;;;;;;;13.90;8.17;;;;;;;;;;5013440;28;20171;-69
2023/03/24 02:21:09;;;;;;;16.00;8.70;;;;;;;;;;5030132;28;20191;-69
2023/03/24 02:23:53;;;;;;;17.13;8.90;;;;;;;;;;5029860;28;20219;-69
2023/03/24 02:26:25;;;;;;;16.07;10.07;;;;;;;;;;5029927;28;20195;-69
2023/03/24 02:29:04;;;;;;;18.33;9.67;;;;;;;;;;5029680;28;20207;-69
2023/03/24 02:31:33;;;;;;;16.77;9.83;;;;;;;;;;5029445;28;20222;-69
2023/03/24 02:34:12;;;;;;;16.60;10.57;;;;;;;;;;5029724;28;20187;-69
2023/03/24 02:36:54;;;;;;;17.83;10.60;;;;;;;;;;5029198;28;20199;-69
2023/03/24 02:39:30;;;;;;;19.37;10.97;;;;;;;;;;5013209;28;20199;-69
2023/03/24 02:42:09;;;;;;;18.80;11.13;;;;;;;;;;5012680;28;20669;-69
2023/03/24 02:44:43;;;;;;;19.93;11.37;;;;;;;;;;5012991;28;20565;-69
2023/03/24 02:47:10;;;;;;;19.47;12.37;;;;;;;;;;5030330;28;20192;-69
2023/03/24 02:50:03;;;;;;;25.37;11.60;;;;;;;;;;5012409;28;20306;-69
2023/03/24 02:52:30;;;;;;;17.20;11.03;;;;;;;;;;4990291;28;20275;-69
2023/03/24 02:54:59;;;;;;;21.53;11.93;;;;;;;;;;5030043;28;20190;-69
2023/03/24 02:57:38;;;;;;;20.27;12.20;;;;;;;;;;5022260;28;20198;-69
2023/03/24 03:00:41;;;;;;;20.07;11.73;;;;;;;;;;5050287;28;21027;-69
2023/03/24 03:03:33;;;;;;;18.83;10.67;;;;;;;;;;5049822;28;20230;-69
2023/03/24 03:06:04;;;;;;;18.17;11.57;;;;;;;;;;5032907;28;20286;-69
2023/03/24 03:08:32;;;;;;;19.30;11.50;;;;;;;;;;5050909;28;20207;-69
2023/03/24 03:11:00;;;;;;;20.07;11.40;;;;;;;;;;5016121;28;20196;-69
2023/03/24 03:13:27;;;;;;;18.40;11.70;;;;;;;;;;5015760;28;20206;-69
2023/03/24 03:15:54;;;;;;;18.27;10.90;;;;;;;;;;5049259;28;20227;-69
2023/03/24 03:18:24;;;;;;;17.77;11.50;;;;;;;;;;5032054;28;20229;-69
2023/03/24 03:20:51;;;;;;;19.97;11.67;;;;;;;;;;5032336;28;20326;-69
2023/03/24 03:23:22;;;;;;;18.30;11.43;;;;;;;;;;5049926;28;20214;-69
2023/03/24 03:25:50;;;;;;;18.93;11.97;;;;;;;;;;5049634;28;20600;-69
2023/03/24 03:28:22;;;;;;;20.67;11.63;;;;;;;;;;5029602;28;20202;-69
2023/03/24 03:30:51;;;;;;;24.77;12.83;;;;;;;;;;5028087;28;20294;-69
2023/03/24 03:33:29;;;;;;;22.80;12.93;;;;;;;;;;5029744;28;20172;-69
2023/03/24 03:36:07;;;;;;;23.03;11.87;;;;;;;;;;5028541;28;20226;-69
2023/03/24 03:39:05;;;;;;;26.00;14.27;;;;;;;;;;5028724;28;20213;-69
2023/03/24 03:41:32;;;;;;;25.17;13.53;;;;;;;;;;4977456;28;20968;-69
2023/03/24 03:44:00;;;;;;;29.07;14.10;;;;;;;;;;5027978;28;20219;-69
2023/03/24 03:46:27;;;;;;;30.77;15.77;;;;;;;;;;5027978;28;20278;-69
2023/03/24 03:48:55;;;;;;;33.20;16.03;;;;;;;;;;5011620;28;20227;-70
2023/03/24 03:51:22;;;;;;;30.63;16.73;;;;;;;;;;5028193;28;20230;-69
2023/03/24 03:53:54;;;;;;;34.17;17.33;;;;;;;;;;5011957;28;20314;-69
2023/03/24 03:56:22;;;;;;;30.30;14.60;;;;;;;;;;5012965;28;20199;-69
2023/03/24 03:59:41;;;;;;;35.63;17.10;;;;;;;;;;5031000;28;20199;-69
2023/03/24 04:02:27;;;;;;;35.47;16.33;;;;;;;;;;5023185;28;21098;-70
2023/03/24 04:05:12;;;;;;;32.00;16.87;;;;;;;;;;5032096;28;20206;-70
2023/03/24 04:07:56;;;;;;;34.30;17.27;;;;;;;;;;5027864;28;20219;-71
2023/03/24 04:10:45;;;;;;;34.47;16.77;;;;;;;;;;5028772;28;20203;-71
2023/03/24 04:13:34;;;;;;;29.67;15.50;;;;;;;;;;5028082;28;20199;-71
2023/03/24 04:16:17;;;;;;;28.47;14.97;;;;;;;;;;5024706;28;20289;-71
2023/03/24 04:19:26;;;;;;;29.63;15.50;;;;;;;;;;4945819;28;20205;-70
2023/03/24 04:21:57;;;;;;;25.67;15.13;;;;;;;;;;4973652;28;20203;-70
2023/03/24 04:24:27;;;;;;;28.77;15.37;;;;;;;;;;5033821;28;20308;-70
2023/03/24 04:27:05;;;;;;;24.67;14.63;;;;;;;;;;5026968;28;20657;-71
2023/03/24 04:29:33;;;;;;;26.27;14.50;;;;;;;;;;5027901;28;20284;-70
2023/03/24 04:32:01;;;;;;;24.33;14.17;;;;;;;;;;5028223;28;20738;-70
2023/03/24 04:34:32;;;;;;;22.73;14.00;;;;;;;;;;5027750;28;20202;-71
2023/03/24 04:37:20;;;;;;;23.87;13.13;;;;;;;;;;5013522;28;20205;-70
2023/03/24 04:40:00;;;;;;;21.53;13.20;;;;;;;;;;5031280;28;20579;-71
2023/03/24 04:42:29;;;;;;;22.47;13.53;;;;;;;;;;5010846;28;20238;-68
2023/03/24 04:44:56;;;;;;;17.13;11.90;;;;;;;;;;5022582;28;20191;-69
2023/03/24 04:47:56;;;;;;;20.50;12.30;;;;;;;;;;4983877;28;20201;-70
2023/03/24 04:50:35;;;;;;;20.83;12.90;;;;;;;;;;5012354;28;20661;-69
2023/03/24 04:53:07;;;;;;;18.00;11.40;;;;;;;;;;5012310;28;21106;-69
2023/03/24 04:55:44;;;;;;;19.30;12.37;;;;;;;;;;5027403;28;20661;-69
2023/03/24 04:58:11;;;;;;;17.37;11.40;;;;;;;;;;5030025;28;20212;-69
2023/03/24 05:00:40;;;;;;;17.53;11.33;;;;;;;;;;5027312;28;20206;-68
2023/03/24 05:03:07;;;;;;;16.27;11.17;;;;;;;;;;5019213;28;20281;-69
2023/03/24 05:05:34;;;;;;;17.00;11.00;;;;;;;;;;5026447;28;20197;-69
2023/03/24 05:08:00;;;;;;;18.30;11.23;;;;;;;;;;5025643;28;20218;-69
2023/03/24 05:10:27;;;;;;;17.57;11.23;;;;;;;;;;5027173;28;20230;-69
2023/03/24 05:12:56;;;;;;;16.40;11.27;;;;;;;;;;5026045;28;20203;-69
2023/03/24 05:15:29;;;;;;;19.90;11.73;;;;;;;;;;5011176;28;20203;-69
2023/03/24 05:18:19;;;;;;;17.27;10.50;;;;;;;;;;5025379;28;20654;-69
2023/03/24 05:20:46;;;;;;;16.70;10.93;;;;;;;;;;5027010;28;20594;-69
2023/03/24 05:23:18;;;;;;;19.53;11.80;;;;;;;;;;5026266;28;20191;-69
2023/03/24 05:25:46;;;;;;;17.87;10.77;;;;;;;;;;5037965;28;20202;-69
2023/03/24 05:28:15;;;;;;;16.70;10.10;;;;;;;;;;5046695;28;20549;-71
2023/03/24 05:30:42;;;;;;;19.57;11.00;;;;;;;;;;5027089;28;20187;-69
2023/03/24 05:33:29;;;;;;;20.30;11.10;;;;;;;;;;5041691;28;20680;-69
2023/03/24 05:35:57;;;;;;;21.07;10.73;;;;;;;;;;5038054;28;20270;-69
2023/03/24 05:38:24;;;;;;;18.50;11.37;;;;;;;;;;5023068;28;20198;-70
2023/03/24 05:40:57;;;;;;;19.43;11.17;;;;;;;;;;5033874;28;20203;-69
2023/03/24 05:43:28;;;;;;;18.93;11.50;;;;;;;;;;5049369;28;20709;-70
2023/03/24 05:46:05;;;;;;;19.47;11.67;;;;;;;;;;5034174;28;20430;-69
2023/03/24 05:48:33;;;;;;;22.20;11.90;;;;;;;;;;5017607;28;20202;-69
2023/03/24 05:51:09;;;;;;;17.63;10.43;;;;;;;;;;5033855;28;20193;-68
2023/03/24 05:53:36;;;;;;;17.30;10.23;;;;;;;;;;5033596;28;20202;-67
2023/03/24 05:56:11;;;;;;;19.33;10.80;;;;;;;;;;5017912;28;20190;-67
2023/03/24 05:59:01;;;;;;;16.33;10.33;;;;;;;;;;5009596;28;20210;-69
2023/03/24 06:01:59;;;;;;;16.20;11.27;;;;;;;;;;5033540;28;20202;-69
2023/03/24 06:04:56;;;;;;;17.27;10.73;;;;;;;;;;4977134;28;20265;-69
2023/03/24 06:07:25;;;;;;;17.17;10.77;;;;;;;;;;5027034;28;20203;-69
2023/03/24 06:09:56;;;;;;;18.17;10.97;;;;;;;;;;5017951;28;20269;-70
2023/03/24 06:12:25;;;;;;;17.47;10.97;;;;;;;;;;5027662;28;20240;-68
2023/03/24 06:15:00;;;;;;;13.60;9.60;;;;;;;;;;5048964;28;20285;-68
2023/03/24 06:17:29;;;;;;;15.67;10.00;;;;;;;;;;5042079;28;20183;-67
2023/03/24 06:20:01;;;;;;;16.33;9.70;;;;;;;;;;5018274;28;20186;-67
2023/03/24 06:22:58;;;;;;;13.50;9.17;;;;;;;;;;5027149;28;20202;-66
2023/03/24 06:25:34;;;;;;;14.20;9.87;;;;;;;;;;5058106;28;20248;-68
2023/03/24 06:28:29;;;;;;;11.47;8.17;;;;;;;;;;5041165;28;20292;-67
2023/03/24 06:30:59;;;;;;;13.30;8.70;;;;;;;;;;5037765;28;20215;-66
2023/03/24 06:33:33;;;;;;;14.00;8.30;;;;;;;;;;5046082;28;20749;-68
2023/03/24 06:36:01;;;;;;;14.27;8.10;;;;;;;;;;5046424;28;20207;-69
2023/03/24 06:38:30;;;;;;;14.10;8.60;;;;;;;;;;5041574;28;20197;-68
2023/03/24 06:41:03;;;;;;;12.47;8.47;;;;;;;;;;5024806;28;20896;-68
2023/03/24 06:43:30;;;;;;;13.40;8.27;;;;;;;;;;5015058;28;20225;-68
2023/03/24 06:45:57;;;;;;;13.87;8.60;;;;;;;;;;5013848;28;20201;-69
2023/03/24 06:48:26;;;;;;;12.30;8.33;;;;;;;;;;5029871;28;20199;-68
2023/03/24 06:51:00;;;;;;;12.43;7.67;;;;;;;;;;5028689;28;20189;-69
2023/03/24 06:53:27;;;;;;;11.13;7.40;;;;;;;;;;5046916;28;20553;-68
2023/03/24 06:55:54;;;;;;;10.43;7.73;;;;;;;;;;5029395;28;20657;-69
2023/03/24 06:58:24;;;;;;;9.73;7.20;;;;;;;;;;5028445;28;20194;-69
2023/03/24 07:01:04;;;;;;;9.43;6.27;;;;;;;;;;5053971;28;20201;-68
2023/03/24 07:03:33;;;;;;;9.43;6.87;;;;;;;;;;5012394;28;20199;-71
2023/03/24 07:06:17;;;;;;;8.00;6.50;;;;;;;;;;5030327;28;20667;-69
2023/03/24 07:08:49;;;;;;;9.90;6.37;;;;;;;;;;5028999;28;20209;-71
2023/03/24 07:11:16;;;;;;;8.87;5.53;;;;;;;;;;5034586;28;20242;-68
2023/03/24 07:13:49;;;;;;;7.37;5.43;;;;;;;;;;5028879;28;20535;-69
2023/03/24 07:16:16;;;;;;;7.33;5.50;;;;;;;;;;5046071;28;20205;-69
2023/03/24 07:18:45;;;;;;;7.63;5.63;;;;;;;;;;5013023;28;20202;-69
2023/03/24 07:21:14;;;;;;;9.43;6.37;;;;;;;;;;5025127;28;20196;-71
2023/03/24 07:23:42;;;;;;;7.67;5.97;;;;;;;;;;5011771;28;20293;-70
2023/03/24 07:26:14;;;;;;;7.27;5.00;;;;;;;;;;5028055;28;20896;-69
2023/03/24 07:28:43;;;;;;;6.33;5.00;;;;;;;;;;5045887;28;20601;-71
2023/03/24 07:31:12;;;;;;;7.10;5.07;;;;;;;;;;5044539;28;20209;-71
2023/03/24 07:33:40;;;;;;;7.43;4.93;;;;;;;;;;5047901;28;20222;-68
2023/03/24 07:36:07;;;;;;;6.80;5.13;;;;;;;;;;5065222;28;20204;-67
2023/03/24 07:38:37;;;;;;;7.87;4.70;;;;;;;;;;5053582;28;20238;-67
2023/03/24 07:41:08;;;;;;;7.53;5.13;;;;;;;;;;5027812;28;20214;-67
2023/03/24 07:43:40;;;;;;;7.30;4.43;;;;;;;;;;5027952;28;20593;-67
2023/03/24 07:46:18;;;;;;;5.30;3.73;;;;;;;;;;5046673;28;20307;-68
2023/03/24 07:48:46;;;;;;;5.33;3.90;;;;;;;;;;5054768;28;20233;-69
2023/03/24 07:51:16;;;;;;;5.57;3.77;;;;;;;;;;5027550;28;20198;-69
2023/03/24 07:53:49;;;;;;;8.27;3.63;;;;;;;;;;5049847;28;20223;-68
2023/03/24 07:56:26;;;;;;;7.23;4.23;;;;;;;;;;5046329;28;20205;-68
2023/03/24 07:58:56;;;;;;;7.47;4.57;;;;;;;;;;5044474;28;20661;-70
2023/03/24 08:01:30;;;;;;;4.93;4.23;;;;;;;;;;5047146;28;20194;-69
2023/03/24 08:04:02;;;;;;;6.53;4.70;;;;;;;;;;5041073;28;20207;-69
2023/03/24 08:06:47;;;;;;;6.00;4.23;;;;;;;;;;5045622;28;20209;-68
2023/03/24 08:09:15;;;;;;;5.17;3.90;;;;;;;;;;5044524;28;20282;-68
2023/03/24 08:11:42;;;;;;;5.17;4.43;;;;;;;;;;5033262;28;20234;-70
2023/03/24 08:14:09;;;;;;;6.40;4.57;;;;;;;;;;5044826;28;20661;-69
2023/03/24 08:16:37;;;;;;;6.00;4.40;;;;;;;;;;5044852;28;20194;-68
2023/03/24 08:19:05;;;;;;;6.23;4.87;;;;;;;;;;5046347;28;20195;-69
2023/03/24 08:21:32;;;;;;;7.80;5.50;;;;;;;;;;5051914;28;20186;-69
2023/03/24 08:23:59;;;;;;;6.83;4.90;;;;;;;;;;5060552;28;20186;-68
2023/03/24 08:26:33;;;;;;;8.53;6.20;;;;;;;;;;5027406;28;21086;-69
2023/03/24 08:29:00;;;;;;;9.97;6.90;;;;;;;;;;5046309;28;20194;-69
2023/03/24 08:31:33;;;;;;;9.77;6.70;;;;;;;;;;5045981;28;20194;-69
2023/03/24 08:34:00;;;;;;;10.17;6.40;;;;;;;;;;5033489;28;20194;-69
2023/03/24 08:36:27;;;;;;;8.87;7.13;;;;;;;;;;5026416;28;20187;-71
2023/03/24 08:38:54;;;;;;;8.63;7.00;;;;;;;;;;5048313;28;20205;-70
2023/03/24 08:41:21;;;;;;;8.83;7.93;;;;;;;;;;5046579;28;20187;-70
2023/03/24 08:43:48;;;;;;;10.57;6.77;;;;;;;;;;5027137;28;20240;-74
2023/03/24 08:46:15;;;;;;;9.20;6.97;;;;;;;;;;5010129;28;20586;-74
2023/03/24 08:48:42;;;;;;;9.30;7.30;;;;;;;;;;5027483;28;20221;-75
2023/03/24 08:51:12;;;;;;;11.67;7.63;;;;;;;;;;5052663;28;20237;-76
2023/03/24 08:53:40;;;;;;;10.33;7.33;;;;;;;;;;5030806;28;20199;-74
2023/03/24 08:56:07;;;;;;;7.10;5.97;;;;;;;;;;5055225;28;20937;-74
2023/03/24 08:58:35;;;;;;;8.33;7.50;;;;;;;;;;5011266;28;20524;-74
2023/03/24 09:01:02;;;;;;;10.07;7.70;;;;;;;;;;5052803;28;20179;-74
2023/03/24 09:03:30;;;;;;;11.40;8.30;;;;;;;;;;5048807;28;20296;-74
2023/03/24 09:05:58;;;;;;;10.83;7.23;;;;;;;;;;5044747;28;20197;-73
2023/03/24 09:08:25;;;;;;;10.33;8.20;;;;;;;;;;5011554;28;20197;-74
2023/03/24 09:10:52;;;;;;;9.63;6.87;;;;;;;;;;5051912;28;20238;-74
2023/03/24 09:13:21;;;;;;;9.73;7.70;;;;;;;;;;5044136;28;20223;-73
2023/03/24 09:15:48;;;;;;;9.80;8.53;;;;;;;;;;5011017;28;20198;-75
2023/03/24 09:18:16;;;;;;;6.73;5.73;;;;;;;;;;5019968;28;20205;-72
2023/03/24 09:20:42;;;;;;;9.77;7.30;;;;;;;;;;5052124;28;20193;-73
2023/03/24 09:23:09;;;;;;;10.33;7.83;;;;;;;;;;5045468;28;20281;-71
2023/03/24 09:25:36;;;;;;;12.33;8.77;;;;;;;;;;5044542;28;20183;-73
2023/03/24 09:28:03;;;;;;;10.73;8.67;;;;;;;;;;5028003;28;20191;-74
2023/03/24 09:30:30;;;;;;;9.60;7.47;;;;;;;;;;5051816;28;20219;-73
2023/03/24 09:33:00;;;;;;;9.20;7.70;;;;;;;;;;5011753;28;20214;-73
2023/03/24 09:35:27;;;;;;;9.17;7.70;;;;;;;;;;5044673;28;21103;-73
2023/03/24 09:37:54;;;;;;;14.37;7.40;;;;;;;;;;5045159;28;20198;-73
2023/03/24 09:40:24;;;;;;;10.20;6.60;;;;;;;;;;5050857;28;20189;-74
2023/03/24 09:43:00;;;;;;;9.90;7.60;;;;;;;;;;5044354;28;20258;-74
2023/03/24 09:45:28;;;;;;;7.83;6.23;;;;;;;;;;5056765;28;20203;-73
2023/03/24 09:47:56;;;;;;;7.83;6.13;;;;;;;;;;5027796;28;20210;-72
2023/03/24 09:50:24;;;;;;;10.27;6.50;;;;;;;;;;5027092;28;20198;-72
2023/03/24 09:52:55;;;;;;;8.77;5.87;;;;;;;;;;5026691;28;20218;-71
2023/03/24 09:55:23;;;;;;;10.50;6.30;;;;;;;;;;5027517;28;20198;-73
2023/03/24 09:57:50;;;;;;;8.30;6.57;;;;;;;;;;5017363;28;20202;-73
2023/03/24 10:00:18;;;;;;;8.17;6.00;;;;;;;;;;5023110;28;20256;-73
2023/03/24 10:02:45;;;;;;;7.50;6.17;;;;;;;;;;5045632;28;20225;-72
2023/03/24 10:05:17;;;;;;;7.97;7.00;;;;;;;;;;5027497;28;20199;-73
2023/03/24 10:07:46;;;;;;;7.73;6.53;;;;;;;;;;5010937;28;20198;-71
2023/03/24 10:10:26;;;;;;;6.97;5.70;;;;;;;;;;5026630;28;20211;-73
2023/03/24 10:12:53;;;;;;;7.60;6.47;;;;;;;;;;5035967;28;20240;-73
2023/03/24 10:15:29;;;;;;;9.03;6.60;;;;;;;;;;5010484;28;20285;-73
2023/03/24 10:18:22;;;;;;;10.07;6.97;;;;;;;;;;5028879;28;20218;-73
2023/03/24 10:20:51;;;;;;;4.90;4.03;;;;;;;;;;5005719;28;20195;-68
2023/03/24 10:23:32;;;;;;;8.33;5.87;;;;;;;;;;5044780;28;20194;-68
2023/03/24 10:26:05;;;;;;;9.53;7.67;;;;;;;;;;5017884;28;20197;-67
2023/03/24 10:28:32;;;;;;;7.40;6.03;;;;;;;;;;5032763;28;20245;-67
2023/03/24 10:31:00;;;;;;;11.57;9.23;;;;;;;;;;5049744;28;20269;-67
2023/03/24 10:33:27;;;;;;;10.70;8.33;;;;;;;;;;5032770;28;20249;-69
2023/03/24 10:35:57;;;;;;;10.37;7.10;;;;;;;;;;5032898;28;20199;-67
2023/03/24 10:38:24;;;;;;;8.83;6.40;;;;;;;;;;5048671;28;20197;-67
2023/03/24 10:40:51;;;;;;;10.40;9.40;;;;;;;;;;5053416;28;20195;-66
2023/03/24 10:43:18;;;;;;;9.97;8.50;;;;;;;;;;5029775;28;20253;-67
2023/03/24 10:45:54;;;;;;;9.97;6.80;;;;;;;;;;5059388;28;20194;-67
2023/03/24 10:48:40;;;;;;;8.27;7.37;;;;;;;;;;5047349;28;20608;-67
2023/03/24 10:51:15;;;;;;;8.97;7.93;;;;;;;;;;5050387;28;20230;-69
2023/03/24 10:53:46;;;;;;;9.63;6.87;;;;;;;;;;5030346;28;20190;-68
2023/03/24 10:56:17;;;;;;;8.20;7.37;;;;;;;;;;5047340;28;20610;-68
2023/03/24 10:58:44;;;;;;;7.37;6.27;;;;;;;;;;5047605;28;20220;-68
2023/03/24 11:01:23;;;;;;;8.43;7.47;;;;;;;;;;5047200;28;20207;-67
2023/03/24 11:03:57;;;;;;;7.27;4.40;;;;;;;;;;5047706;28;20964;-67
2023/03/24 11:06:24;;;;;;;9.00;6.83;;;;;;;;;;5031396;28;20282;-69
2023/03/24 11:09:08;;;;;;;6.83;6.13;;;;;;;;;;5047533;28;20619;-68
2023/03/24 11:11:35;;;;;;;7.63;5.97;;;;;;;;;;5041886;28;20220;-68
2023/03/24 11:14:02;;;;;;;8.23;5.77;;;;;;;;;;5062031;28;20731;-68
2023/03/24 11:16:38;;;;;;;8.60;5.77;;;;;;;;;;5047852;28;20186;-69
2023/03/24 11:19:06;;;;;;;7.60;4.67;;;;;;;;;;5029741;28;20191;-68
2023/03/24 11:21:36;;;;;;;8.13;6.43;;;;;;;;;;5028431;28;20522;-68
2023/03/24 11:24:08;;;;;;;8.73;6.50;;;;;;;;;;5017278;28;20202;-68
2023/03/24 11:26:35;;;;;;;8.03;6.00;;;;;;;;;;5065890;28;20217;-66
2023/03/24 11:29:06;;;;;;;6.73;5.77;;;;;;;;;;5029864;28;20249;-68
2023/03/24 11:31:37;;;;;;;5.70;5.07;;;;;;;;;;5055584;28;20293;-68
2023/03/24 11:34:10;;;;;;;7.37;4.77;;;;;;;;;;5063116;28;20203;-69
2023/03/24 11:36:41;;;;;;;7.93;5.60;;;;;;;;;;5028254;28;20179;-68
2023/03/24 11:39:16;;;;;;;6.63;4.30;;;;;;;;;;5028854;28;20221;-68
2023/03/24 11:41:50;;;;;;;6.20;4.77;;;;;;;;;;5066906;28;20269;-69
2023/03/24 11:44:23;;;;;;;4.97;4.47;;;;;;;;;;5023965;28;20221;-69
2023/03/24 11:47:14;;;;;;;5.57;4.93;;;;;;;;;;5012184;28;21104;-68
2023/03/24 11:49:43;;;;;;;5.03;3.83;;;;;;;;;;5041065;28;20229;-68
2023/03/24 11:52:20;;;;;;;5.23;4.70;;;;;;;;;;5048262;28;20292;-68
2023/03/24 11:54:48;;;;;;;6.23;4.47;;;;;;;;;;5036950;28;20229;-67
2023/03/24 11:57:16;;;;;;;4.23;3.50;;;;;;;;;;5046402;28;20182;-67
2023/03/24 12:00:09;;;;;;;5.20;4.13;;;;;;;;;;5028621;28;20198;-69
2023/03/24 12:02:44;;;;;;;4.00;3.10;;;;;;;;;;5017055;28;20565;-69
2023/03/24 12:05:14;;;;;;;3.87;3.03;;;;;;;;;;5028206;28;20585;-68
2023/03/24 12:07:48;;;;;;;5.77;3.80;;;;;;;;;;5046127;28;20194;-69
2023/03/24 12:10:15;;;;;;;5.70;4.30;;;;;;;;;;5049243;28;20589;-67
2023/03/24 12:12:46;;;;;;;3.73;3.23;;;;;;;;;;5034817;28;20234;-68
2023/03/24 12:15:19;;;;;;;3.83;3.43;;;;;;;;;;5030649;28;20202;-67
2023/03/24 12:17:59;;;;;;;4.17;3.10;;;;;;;;;;5046221;28;20183;-69
2023/03/24 12:20:29;;;;;;;3.97;3.30;;;;;;;;;;5052185;28;20214;-68
2023/03/24 12:22:58;;;;;;;7.43;3.23;;;;;;;;;;5045791;28;20281;-69
2023/03/24 12:25:37;;;;;;;5.70;3.90;;;;;;;;;;5027844;28;20195;-69
2023/03/24 12:28:05;;;;;;;5.23;3.80;;;;;;;;;;5045590;28;20225;-68
2023/03/24 12:30:43;;;;;;;5.10;3.80;;;;;;;;;;5050158;28;20254;-67
2023/03/24 12:33:22;;;;;;;3.90;3.10;;;;;;;;;;5027198;28;20195;-69
2023/03/24 12:36:10;;;;;;;6.07;3.67;;;;;;;;;;5035877;28;20732;-68
2023/03/24 12:38:51;;;;;;;6.10;3.90;;;;;;;;;;5029208;28;20198;-68
2023/03/24 12:41:21;;;;;;;5.30;4.20;;;;;;;;;;5027228;28;20668;-66
2023/03/24 12:44:06;;;;;;;4.53;3.73;;;;;;;;;;5058120;28;20214;-67
2023/03/24 12:46:45;;;;;;;4.40;3.43;;;;;;;;;;5068158;28;20194;-68
2023/03/24 12:49:33;;;;;;;6.17;4.37;;;;;;;;;;5054750;28;20182;-67
2023/03/24 12:52:06;;;;;;;5.67;3.93;;;;;;;;;;5048225;28;20213;-67
2023/03/24 12:55:01;;;;;;;4.33;3.10;;;;;;;;;;5048006;28;20190;-68
2023/03/24 12:57:29;;;;;;;5.23;4.17;;;;;;;;;;5022156;28;20936;-67
2023/03/24 12:59:56;;;;;;;5.37;3.97;;;;;;;;;;5048151;28;20190;-67
2023/03/24 13:02:26;;;;;;;4.20;3.80;;;;;;;;;;5048016;28;20194;-67
2023/03/24 13:04:53;;;;;;;4.33;3.77;;;;;;;;;;5047529;28;20194;-67
2023/03/24 13:07:24;;;;;;;5.43;4.37;;;;;;;;;;5029637;28;20217;-66
2023/03/24 13:09:58;;;;;;;3.90;3.50;;;;;;;;;;5029651;28;20193;-67
2023/03/24 13:12:32;;;;;;;4.20;3.07;;;;;;;;;;5014509;28;20207;-67
2023/03/24 13:15:02;;;;;;;4.67;3.03;;;;;;;;;;5030672;28;20205;-67
2023/03/24 13:17:30;;;;;;;4.10;2.77;;;;;;;;;;5047987;28;20183;-68
2023/03/24 13:19:57;;;;;;;4.87;3.80;;;;;;;;;;5047724;28;20248;-68
2023/03/24 13:22:24;;;;;;;4.50;4.07;;;;;;;;;;5030154;28;20252;-67
2023/03/24 13:24:51;;;;;;;6.23;4.60;;;;;;;;;;5030039;28;20190;-68
2023/03/24 13:27:21;;;;;;;5.40;4.23;;;;;;;;;;5013705;28;20644;-68
2023/03/24 13:30:00;;;;;;;6.70;5.37;;;;;;;;;;5047686;28;20191;-68
2023/03/24 13:32:29;;;;;;;5.27;4.23;;;;;;;;;;5030562;28;20242;-70
2023/03/24 13:34:59;;;;;;;6.53;4.63;;;;;;;;;;5047376;28;20190;-69
2023/03/24 13:37:34;;;;;;;7.47;4.63;;;;;;;;;;5047926;28;20857;-66
2023/03/24 13:40:05;;;;;;;8.17;6.67;;;;;;;;;;5046194;28;20668;-68
2023/03/24 13:42:33;;;;;;;8.20;6.30;;;;;;;;;;5032750;28;20309;-68
2023/03/24 13:45:05;;;;;;;6.33;4.80;;;;;;;;;;5050006;28;20203;-67
2023/03/24 13:47:50;;;;;;;5.37;4.33;;;;;;;;;;5050177;28;20237;-68
2023/03/24 13:50:17;;;;;;;6.70;4.37;;;;;;;;;;5050108;28;20191;-67
2023/03/24 13:52:47;;;;;;;5.80;4.90;;;;;;;;;;5049950;28;20218;-68
2023/03/24 13:55:14;;;;;;;8.17;4.40;;;;;;;;;;5053795;28;20233;-67
2023/03/24 13:57:41;;;;;;;5.97;4.37;;;;;;;;;;5060876;28;20205;-67
2023/03/24 14:00:16;;;;;;;4.27;3.87;;;;;;;;;;5028247;28;20226;-68
2023/03/24 14:02:46;;;;;;;4.07;3.10;;;;;;;;;;5049000;28;20213;-68
2023/03/24 14:05:25;;;;;;;4.13;3.67;;;;;;;;;;5048029;28;20194;-67
2023/03/24 14:08:12;;;;;;;5.67;4.40;;;;;;;;;;5048613;28;20978;-69
2023/03/24 14:10:43;;;;;;;5.50;4.30;;;;;;;;;;5048753;28;20665;-66
2023/03/24 14:13:10;;;;;;;4.90;4.20;;;;;;;;;;5030302;28;20806;-66
2023/03/24 14:15:55;;;;;;;4.33;3.60;;;;;;;;;;5048906;28;20209;-66
2023/03/24 14:18:22;;;;;;;3.73;3.33;;;;;;;;;;5033414;28;20692;-67
2023/03/24 14:20:56;;;;;;;4.30;2.90;;;;;;;;;;5050471;28;20205;-69
2023/03/24 14:23:32;;;;;;;3.03;2.53;;;;;;;;;;5053543;28;20253;-68
2023/03/24 14:25:59;;;;;;;3.43;2.37;;;;;;;;;;5048329;28;20190;-66
2023/03/24 14:28:45;;;;;;;3.83;3.03;;;;;;;;;;5047345;28;20276;-66
2023/03/24 14:31:14;;;;;;;4.60;3.50;;;;;;;;;;5029950;28;20313;-66
2023/03/24 14:33:43;;;;;;;7.33;4.47;;;;;;;;;;5048197;28;20218;-66
2023/03/24 14:36:16;;;;;;;5.83;3.73;;;;;;;;;;5029609;28;20191;-67
2023/03/24 14:38:43;;;;;;;6.37;4.20;;;;;;;;;;5052410;28;20193;-67
2023/03/24 14:41:16;;;;;;;4.23;3.20;;;;;;;;;;5029124;28;20542;-67
2023/03/24 14:43:42;;;;;;;6.23;3.63;;;;;;;;;;5048630;28;20219;-67
2023/03/24 14:46:19;;;;;;;7.60;4.43;;;;;;;;;;5049906;28;20210;-67
2023/03/24 14:49:04;;;;;;;5.73;3.57;;;;;;;;;;5054791;28;20204;-68
2023/03/24 14:51:38;;;;;;;5.30;3.93;;;;;;;;;;5044539;28;20221;-67
2023/03/24 14:54:10;;;;;;;4.67;3.67;;;;;;;;;;5045341;28;20203;-67
2023/03/24 14:56:38;;;;;;;5.00;3.77;;;;;;;;;;5029958;28;20608;-67
2023/03/24 14:59:24;;;;;;;4.00;3.33;;;;;;;;;;5030921;28;20201;-67
2023/03/24 15:01:52;;;;;;;4.10;2.80;;;;;;;;;;5030758;28;20218;-67
2023/03/24 15:04:20;;;;;;;4.03;3.30;;;;;;;;;;5031724;28;20652;-68
2023/03/24 15:06:50;;;;;;;4.13;2.60;;;;;;;;;;5049854;28;20202;-68
2023/03/24 15:09:17;;;;;;;3.70;2.80;;;;;;;;;;5059801;28;20219;-68
2023/03/24 15:11:45;;;;;;;4.90;3.03;;;;;;;;;;5049953;28;20229;-68
2023/03/24 15:14:30;;;;;;;4.10;2.60;;;;;;;;;;5031971;28;20215;-68
2023/03/24 15:17:03;;;;;;;3.83;3.00;;;;;;;;;;5032175;28;20249;-68
2023/03/24 15:19:30;;;;;;;3.50;3.00;;;;;;;;;;5054051;28;20285;-68
2023/03/24 15:21:56;;;;;;;3.30;2.30;;;;;;;;;;5049967;28;20277;-68
2023/03/24 15:24:28;;;;;;;5.23;3.13;;;;;;;;;;5050298;28;20210;-68
2023/03/24 15:27:07;;;;;;;4.40;3.23;;;;;;;;;;5049916;28;20198;-68
2023/03/24 15:29:39;;;;;;;4.93;3.50;;;;;;;;;;5031395;28;20201;-68
2023/03/24 15:32:08;;;;;;;5.03;2.93;;;;;;;;;;5051540;28;20222;-68
2023/03/24 15:34:36;;;;;;;5.33;3.67;;;;;;;;;;5032531;28;20209;-68
2023/03/24 15:37:04;;;;;;;5.07;3.60;;;;;;;;;;5049502;28;20186;-67
2023/03/24 15:39:35;;;;;;;8.50;5.00;;;;;;;;;;5032641;28;20197;-67